sensor_id;sensor_type;location;lat;lon;timestamp;P1;durP1;ratioP1;P2;durP2;ratioP2
74168;SDS011;62523;53.336;83.690;2023-09-19T00:03:29;24.70;;;12.70;;
74168;SDS011;62523;53.336;83.690;2023-09-19T00:08:31;18.77;;;11.80;;
74168;SDS011;62523;53.336;83.690;2023-09-19T00:13:34;30.63;;;11.95;;
74168;SDS011;62523;53.336;83.690;2023-09-19T00:18:37;41.43;;;11.67;;
74168;SDS011;62523;53.336;83.690;2023-09-19T00:23:39;22.83;;;10.32;;
74168;SDS011;62523;53.336;83.690;2023-09-19T00:28:43;20.92;;;10.55;;
74168;SDS011;62523;53.336;83.690;2023-09-19T00:33:45;25.77;;;11.48;;
74168;SDS011;62523;53.336;83.690;2023-09-19T00:38:46;20.98;;;11.23;;
74168;SDS011;62523;53.336;83.690;2023-09-19T00:43:48;26.42;;;8.85;;
74168;SDS011;62523;53.336;83.690;2023-09-19T00:48:51;38.17;;;9.82;;
74168;SDS011;62523;53.336;83.690;2023-09-19T00:53:52;29.10;;;10.00;;
74168;SDS011;62523;53.336;83.690;2023-09-19T00:58:55;19.30;;;9.57;;
74168;SDS011;62523;53.336;83.690;2023-09-19T01:03:57;15.03;;;8.50;;
74168;SDS011;62523;53.336;83.690;2023-09-19T01:08:59;27.10;;;13.00;;
74168;SDS011;62523;53.336;83.690;2023-09-19T01:30:45;19.32;;;9.66;;
74168;SDS011;62523;53.336;83.690;2023-09-19T01:35:52;23.75;;;9.57;;
74168;SDS011;62523;53.336;83.690;2023-09-19T01:41:03;20.98;;;9.63;;
74168;SDS011;62523;53.336;83.690;2023-09-19T01:46:14;28.48;;;12.02;;
74168;SDS011;62523;53.336;83.690;2023-09-19T01:51:22;46.50;;;13.15;;
74168;SDS011;62523;53.336;83.690;2023-09-19T01:56:52;49.88;;;15.35;;
74168;SDS011;62523;53.336;83.690;2023-09-19T02:02:02;40.42;;;14.27;;
74168;SDS011;62523;53.336;83.690;2023-09-19T02:07:06;42.65;;;11.80;;
74168;SDS011;62523;53.336;83.690;2023-09-19T02:12:09;28.27;;;13.20;;
74168;SDS011;62523;53.336;83.690;2023-09-19T02:17:11;30.67;;;12.85;;
74168;SDS011;62523;53.336;83.690;2023-09-19T02:22:13;40.35;;;11.82;;
74168;SDS011;62523;53.336;83.690;2023-09-19T02:27:15;33.95;;;14.38;;
74168;SDS011;62523;53.336;83.690;2023-09-19T02:32:16;28.45;;;12.27;;
74168;SDS011;62523;53.336;83.690;2023-09-19T02:37:19;32.33;;;11.32;;
74168;SDS011;62523;53.336;83.690;2023-09-19T02:42:20;21.90;;;12.23;;
74168;SDS011;62523;53.336;83.690;2023-09-19T02:47:23;41.70;;;11.27;;
74168;SDS011;62523;53.336;83.690;2023-09-19T02:52:24;31.92;;;12.18;;
74168;SDS011;62523;53.336;83.690;2023-09-19T02:57:26;29.63;;;10.02;;
74168;SDS011;62523;53.336;83.690;2023-09-19T03:02:28;25.67;;;10.30;;
74168;SDS011;62523;53.336;83.690;2023-09-19T03:07:33;23.42;;;10.60;;
74168;SDS011;62523;53.336;83.690;2023-09-19T03:12:35;48.80;;;8.90;;
74168;SDS011;62523;53.336;83.690;2023-09-19T03:17:37;15.67;;;9.47;;
74168;SDS011;62523;53.336;83.690;2023-09-19T03:22:44;26.63;;;10.48;;
74168;SDS011;62523;53.336;83.690;2023-09-19T03:27:47;14.20;;;9.82;;
74168;SDS011;62523;53.336;83.690;2023-09-19T03:32:49;19.03;;;9.50;;
74168;SDS011;62523;53.336;83.690;2023-09-19T03:37:52;23.25;;;11.27;;
74168;SDS011;62523;53.336;83.690;2023-09-19T03:42:53;20.83;;;10.40;;
74168;SDS011;62523;53.336;83.690;2023-09-19T03:47:56;25.83;;;11.30;;
74168;SDS011;62523;53.336;83.690;2023-09-19T03:52:59;32.17;;;11.65;;
74168;SDS011;62523;53.336;83.690;2023-09-19T03:58:01;31.83;;;10.60;;
74168;SDS011;62523;53.336;83.690;2023-09-19T04:03:04;28.35;;;11.68;;
74168;SDS011;62523;53.336;83.690;2023-09-19T04:08:07;20.38;;;10.48;;
74168;SDS011;62523;53.336;83.690;2023-09-19T04:13:09;24.38;;;10.82;;
74168;SDS011;62523;53.336;83.690;2023-09-19T04:18:11;25.73;;;10.18;;
74168;SDS011;62523;53.336;83.690;2023-09-19T04:23:13;15.60;;;9.80;;
74168;SDS011;62523;53.336;83.690;2023-09-19T04:28:14;33.63;;;13.17;;
74168;SDS011;62523;53.336;83.690;2023-09-19T04:33:16;35.85;;;9.88;;
74168;SDS011;62523;53.336;83.690;2023-09-19T04:38:18;28.88;;;11.02;;
74168;SDS011;62523;53.336;83.690;2023-09-19T04:43:20;27.63;;;9.57;;
74168;SDS011;62523;53.336;83.690;2023-09-19T04:48:22;19.65;;;10.25;;
74168;SDS011;62523;53.336;83.690;2023-09-19T04:53:25;21.83;;;9.15;;
74168;SDS011;62523;53.336;83.690;2023-09-19T04:58:26;19.90;;;9.63;;
74168;SDS011;62523;53.336;83.690;2023-09-19T05:03:28;34.38;;;8.77;;
74168;SDS011;62523;53.336;83.690;2023-09-19T05:08:30;24.00;;;10.90;;
74168;SDS011;62523;53.336;83.690;2023-09-19T05:13:31;27.10;;;12.30;;
74168;SDS011;62523;53.336;83.690;2023-09-19T05:18:33;19.77;;;10.95;;
74168;SDS011;62523;53.336;83.690;2023-09-19T05:23:34;30.80;;;9.13;;
74168;SDS011;62523;53.336;83.690;2023-09-19T05:28:36;13.75;;;6.63;;
74168;SDS011;62523;53.336;83.690;2023-09-19T05:33:38;28.73;;;12.55;;
74168;SDS011;62523;53.336;83.690;2023-09-19T05:38:40;17.60;;;8.57;;
74168;SDS011;62523;53.336;83.690;2023-09-19T05:43:42;29.27;;;9.20;;
74168;SDS011;62523;53.336;83.690;2023-09-19T05:48:44;10.23;;;6.17;;
74168;SDS011;62523;53.336;83.690;2023-09-19T05:53:48;7.40;;;6.00;;
74168;SDS011;62523;53.336;83.690;2023-09-19T05:58:50;17.33;;;6.75;;
74168;SDS011;62523;53.336;83.690;2023-09-19T06:03:52;7.97;;;5.32;;
74168;SDS011;62523;53.336;83.690;2023-09-19T06:08:54;8.93;;;6.05;;
74168;SDS011;62523;53.336;83.690;2023-09-19T06:13:56;10.02;;;5.30;;
74168;SDS011;62523;53.336;83.690;2023-09-19T06:18:57;6.30;;;4.57;;
74168;SDS011;62523;53.336;83.690;2023-09-19T06:24:02;9.38;;;5.30;;
74168;SDS011;62523;53.336;83.690;2023-09-19T06:29:03;10.55;;;5.07;;
74168;SDS011;62523;53.336;83.690;2023-09-19T06:34:08;8.10;;;5.93;;
74168;SDS011;62523;53.336;83.690;2023-09-19T06:39:09;17.40;;;6.65;;
74168;SDS011;62523;53.336;83.690;2023-09-19T06:44:11;10.10;;;6.47;;
74168;SDS011;62523;53.336;83.690;2023-09-19T06:49:13;23.67;;;8.02;;
74168;SDS011;62523;53.336;83.690;2023-09-19T06:54:16;10.02;;;6.75;;
74168;SDS011;62523;53.336;83.690;2023-09-19T06:59:18;11.30;;;6.97;;
74168;SDS011;62523;53.336;83.690;2023-09-19T07:04:20;9.73;;;5.45;;
74168;SDS011;62523;53.336;83.690;2023-09-19T07:09:21;9.93;;;6.20;;
74168;SDS011;62523;53.336;83.690;2023-09-19T07:14:23;10.52;;;4.13;;
74168;SDS011;62523;53.336;83.690;2023-09-19T07:19:24;10.57;;;5.50;;
74168;SDS011;62523;53.336;83.690;2023-09-19T07:24:29;16.23;;;6.38;;
74168;SDS011;62523;53.336;83.690;2023-09-19T07:29:30;7.85;;;4.80;;
74168;SDS011;62523;53.336;83.690;2023-09-19T07:34:32;8.13;;;5.28;;
74168;SDS011;62523;53.336;83.690;2023-09-19T07:39:33;14.50;;;6.47;;
74168;SDS011;62523;53.336;83.690;2023-09-19T07:44:35;7.47;;;4.95;;
74168;SDS011;62523;53.336;83.690;2023-09-19T07:49:37;14.37;;;4.30;;
74168;SDS011;62523;53.336;83.690;2023-09-19T07:54:39;8.48;;;6.70;;
74168;SDS011;62523;53.336;83.690;2023-09-19T07:59:45;11.98;;;8.20;;
74168;SDS011;62523;53.336;83.690;2023-09-19T08:04:46;24.33;;;9.55;;
74168;SDS011;62523;53.336;83.690;2023-09-19T08:09:48;16.30;;;6.87;;
74168;SDS011;62523;53.336;83.690;2023-09-19T08:14:49;14.88;;;5.45;;
74168;SDS011;62523;53.336;83.690;2023-09-19T08:19:51;13.33;;;4.67;;
74168;SDS011;62523;53.336;83.690;2023-09-19T08:24:53;16.38;;;5.90;;
74168;SDS011;62523;53.336;83.690;2023-09-19T08:29:54;9.02;;;4.63;;
74168;SDS011;62523;53.336;83.690;2023-09-19T08:34:56;23.35;;;10.23;;
74168;SDS011;62523;53.336;83.690;2023-09-19T08:39:57;17.20;;;8.23;;
74168;SDS011;62523;53.336;83.690;2023-09-19T08:44:59;9.05;;;5.70;;
74168;SDS011;62523;53.336;83.690;2023-09-19T08:50:03;5.38;;;4.45;;
74168;SDS011;62523;53.336;83.690;2023-09-19T08:55:14;9.82;;;5.45;;
74168;SDS011;62523;53.336;83.690;2023-09-19T09:00:22;13.82;;;6.13;;
74168;SDS011;62523;53.336;83.690;2023-09-19T09:05:28;8.37;;;5.00;;
74168;SDS011;62523;53.336;83.690;2023-09-19T09:10:32;7.97;;;5.35;;
74168;SDS011;62523;53.336;83.690;2023-09-19T09:15:43;14.93;;;6.06;;
74168;SDS011;62523;53.336;83.690;2023-09-19T09:20:45;7.40;;;4.62;;
74168;SDS011;62523;53.336;83.690;2023-09-19T09:25:55;9.33;;;5.17;;
74168;SDS011;62523;53.336;83.690;2023-09-19T09:30:57;13.65;;;5.07;;
74168;SDS011;62523;53.336;83.690;2023-09-19T09:35:59;6.55;;;4.85;;
74168;SDS011;62523;53.336;83.690;2023-09-19T09:41:03;22.88;;;15.60;;
74168;SDS011;62523;53.336;83.690;2023-09-19T09:46:11;10.18;;;5.60;;
74168;SDS011;62523;53.336;83.690;2023-09-19T09:51:30;13.68;;;6.13;;
74168;SDS011;62523;53.336;83.690;2023-09-19T09:56:31;6.30;;;4.47;;
74168;SDS011;62523;53.336;83.690;2023-09-19T10:01:47;11.27;;;5.95;;
74168;SDS011;62523;53.336;83.690;2023-09-19T10:06:49;17.48;;;8.75;;
74168;SDS011;62523;53.336;83.690;2023-09-19T10:12:03;15.07;;;6.70;;
74168;SDS011;62523;53.336;83.690;2023-09-19T10:17:09;12.75;;;6.80;;
74168;SDS011;62523;53.336;83.690;2023-09-19T10:22:16;17.67;;;6.65;;
74168;SDS011;62523;53.336;83.690;2023-09-19T10:27:23;10.65;;;6.47;;
74168;SDS011;62523;53.336;83.690;2023-09-19T10:32:27;11.05;;;6.63;;
74168;SDS011;62523;53.336;83.690;2023-09-19T10:37:34;20.20;;;8.80;;
74168;SDS011;62523;53.336;83.690;2023-09-19T10:42:38;26.10;;;11.65;;
74168;SDS011;62523;53.336;83.690;2023-09-19T10:47:43;16.90;;;8.00;;
74168;SDS011;62523;53.336;83.690;2023-09-19T10:52:44;25.27;;;10.35;;
74168;SDS011;62523;53.336;83.690;2023-09-19T10:57:47;22.85;;;10.43;;
74168;SDS011;62523;53.336;83.690;2023-09-19T11:08:23;31.35;;;11.90;;
74168;SDS011;62523;53.336;83.690;2023-09-19T11:13:28;42.00;;;13.40;;
74168;SDS011;62523;53.336;83.690;2023-09-19T11:23:43;26.50;;;14.60;;
74168;SDS011;62523;53.336;83.690;2023-09-19T11:29:24;61.20;;;38.92;;
74168;SDS011;62523;53.336;83.690;2023-09-19T11:34:45;31.63;;;18.75;;
74168;SDS011;62523;53.336;83.690;2023-09-19T11:40:08;29.60;;;12.80;;
74168;SDS011;62523;53.336;83.690;2023-09-19T11:50:58;41.70;;;24.45;;
74168;SDS011;62523;53.336;83.690;2023-09-19T11:56:00;62.03;;;25.70;;
74168;SDS011;62523;53.336;83.690;2023-09-19T12:01:02;30.13;;;15.05;;
74168;SDS011;62523;53.336;83.690;2023-09-19T12:06:12;25.33;;;11.80;;
74168;SDS011;62523;53.336;83.690;2023-09-19T12:11:17;23.33;;;9.75;;
74168;SDS011;62523;53.336;83.690;2023-09-19T12:16:19;16.43;;;9.33;;
74168;SDS011;62523;53.336;83.690;2023-09-19T12:21:28;18.92;;;9.18;;
74168;SDS011;62523;53.336;83.690;2023-09-19T12:26:38;21.48;;;10.93;;
74168;SDS011;62523;53.336;83.690;2023-09-19T12:31:53;17.13;;;8.07;;
74168;SDS011;62523;53.336;83.690;2023-09-19T12:37:12;11.73;;;6.80;;
74168;SDS011;62523;53.336;83.690;2023-09-19T12:42:28;22.55;;;9.68;;
74168;SDS011;62523;53.336;83.690;2023-09-19T12:47:33;19.45;;;9.23;;
74168;SDS011;62523;53.336;83.690;2023-09-19T12:52:38;21.45;;;11.48;;
74168;SDS011;62523;53.336;83.690;2023-09-19T12:57:41;48.08;;;18.02;;
74168;SDS011;62523;53.336;83.690;2023-09-19T13:08:24;59.47;;;20.95;;
74168;SDS011;62523;53.336;83.690;2023-09-19T13:13:34;41.63;;;19.30;;
74168;SDS011;62523;53.336;83.690;2023-09-19T13:18:47;18.40;;;12.43;;
74168;SDS011;62523;53.336;83.690;2023-09-19T13:23:52;30.37;;;11.67;;
74168;SDS011;62523;53.336;83.690;2023-09-19T13:29:00;19.57;;;10.63;;
74168;SDS011;62523;53.336;83.690;2023-09-19T13:34:02;13.65;;;8.13;;
74168;SDS011;62523;53.336;83.690;2023-09-19T13:39:04;24.33;;;10.73;;
74168;SDS011;62523;53.336;83.690;2023-09-19T13:44:06;25.20;;;10.13;;
74168;SDS011;62523;53.336;83.690;2023-09-19T13:49:09;24.60;;;10.27;;
74168;SDS011;62523;53.336;83.690;2023-09-19T13:54:10;24.58;;;11.88;;
74168;SDS011;62523;53.336;83.690;2023-09-19T13:59:16;18.87;;;9.37;;
74168;SDS011;62523;53.336;83.690;2023-09-19T14:04:17;20.40;;;10.07;;
74168;SDS011;62523;53.336;83.690;2023-09-19T14:09:19;15.13;;;9.48;;
74168;SDS011;62523;53.336;83.690;2023-09-19T14:14:20;22.75;;;10.70;;
74168;SDS011;62523;53.336;83.690;2023-09-19T14:19:22;24.10;;;11.63;;
74168;SDS011;62523;53.336;83.690;2023-09-19T14:24:23;28.75;;;11.50;;
74168;SDS011;62523;53.336;83.690;2023-09-19T14:29:25;34.13;;;17.95;;
74168;SDS011;62523;53.336;83.690;2023-09-19T14:34:26;41.22;;;13.43;;
74168;SDS011;62523;53.336;83.690;2023-09-19T14:39:28;22.88;;;14.00;;
74168;SDS011;62523;53.336;83.690;2023-09-19T14:44:30;31.83;;;19.30;;
74168;SDS011;62523;53.336;83.690;2023-09-19T14:49:34;51.08;;;26.85;;
74168;SDS011;62523;53.336;83.690;2023-09-19T14:54:38;69.07;;;27.30;;
74168;SDS011;62523;53.336;83.690;2023-09-19T14:59:42;82.47;;;30.60;;
74168;SDS011;62523;53.336;83.690;2023-09-19T15:04:43;68.32;;;31.70;;
74168;SDS011;62523;53.336;83.690;2023-09-19T15:09:47;57.40;;;30.88;;
74168;SDS011;62523;53.336;83.690;2023-09-19T15:14:49;51.88;;;25.45;;
74168;SDS011;62523;53.336;83.690;2023-09-19T15:19:50;29.45;;;17.50;;
74168;SDS011;62523;53.336;83.690;2023-09-19T15:24:52;19.27;;;12.10;;
74168;SDS011;62523;53.336;83.690;2023-09-19T15:29:57;18.02;;;10.70;;
74168;SDS011;62523;53.336;83.690;2023-09-19T15:35:00;19.70;;;9.88;;
74168;SDS011;62523;53.336;83.690;2023-09-19T15:40:02;21.98;;;11.05;;
74168;SDS011;62523;53.336;83.690;2023-09-19T15:45:09;23.60;;;8.93;;
74168;SDS011;62523;53.336;83.690;2023-09-19T15:50:11;21.48;;;8.05;;
74168;SDS011;62523;53.336;83.690;2023-09-19T15:55:16;30.95;;;17.77;;
74168;SDS011;62523;53.336;83.690;2023-09-19T16:00:18;12.30;;;6.15;;
74168;SDS011;62523;53.336;83.690;2023-09-19T16:05:20;13.73;;;5.65;;
74168;SDS011;62523;53.336;83.690;2023-09-19T16:10:21;11.40;;;6.10;;
74168;SDS011;62523;53.336;83.690;2023-09-19T16:15:23;8.77;;;6.00;;
74168;SDS011;62523;53.336;83.690;2023-09-19T16:20:25;8.00;;;5.05;;
74168;SDS011;62523;53.336;83.690;2023-09-19T16:25:28;13.38;;;5.22;;
74168;SDS011;62523;53.336;83.690;2023-09-19T16:30:31;7.75;;;5.13;;
74168;SDS011;62523;53.336;83.690;2023-09-19T16:35:42;7.53;;;5.37;;
74168;SDS011;62523;53.336;83.690;2023-09-19T16:40:56;10.35;;;5.65;;
74168;SDS011;62523;53.336;83.690;2023-09-19T16:45:59;19.10;;;5.63;;
74168;SDS011;62523;53.336;83.690;2023-09-19T16:51:03;5.28;;;4.22;;
74168;SDS011;62523;53.336;83.690;2023-09-19T16:56:08;8.77;;;4.77;;
74168;SDS011;62523;53.336;83.690;2023-09-19T17:01:12;15.02;;;5.05;;
74168;SDS011;62523;53.336;83.690;2023-09-19T17:06:16;12.38;;;5.72;;
74168;SDS011;62523;53.336;83.690;2023-09-19T17:11:18;9.15;;;5.80;;
74168;SDS011;62523;53.336;83.690;2023-09-19T17:16:21;11.60;;;6.35;;
74168;SDS011;62523;53.336;83.690;2023-09-19T17:21:23;9.00;;;5.38;;
74168;SDS011;62523;53.336;83.690;2023-09-19T17:26:25;10.73;;;5.20;;
74168;SDS011;62523;53.336;83.690;2023-09-19T17:31:27;11.40;;;6.18;;
74168;SDS011;62523;53.336;83.690;2023-09-19T17:36:29;8.30;;;6.30;;
74168;SDS011;62523;53.336;83.690;2023-09-19T17:41:35;11.35;;;8.65;;
74168;SDS011;62523;53.336;83.690;2023-09-19T17:46:37;24.83;;;7.68;;
74168;SDS011;62523;53.336;83.690;2023-09-19T17:51:39;12.52;;;6.75;;
74168;SDS011;62523;53.336;83.690;2023-09-19T17:56:41;9.48;;;6.82;;
74168;SDS011;62523;53.336;83.690;2023-09-19T18:01:42;8.13;;;5.97;;
74168;SDS011;62523;53.336;83.690;2023-09-19T18:06:46;9.32;;;6.88;;
74168;SDS011;62523;53.336;83.690;2023-09-19T18:11:49;9.80;;;6.83;;
74168;SDS011;62523;53.336;83.690;2023-09-19T18:16:50;12.43;;;8.73;;
74168;SDS011;62523;53.336;83.690;2023-09-19T18:21:56;15.07;;;7.38;;
74168;SDS011;62523;53.336;83.690;2023-09-19T18:27:00;12.55;;;6.78;;
74168;SDS011;62523;53.336;83.690;2023-09-19T18:32:03;12.10;;;8.63;;
74168;SDS011;62523;53.336;83.690;2023-09-19T18:37:05;18.63;;;8.95;;
74168;SDS011;62523;53.336;83.690;2023-09-19T18:42:07;15.35;;;10.02;;
74168;SDS011;62523;53.336;83.690;2023-09-19T18:47:08;15.38;;;8.88;;
74168;SDS011;62523;53.336;83.690;2023-09-19T18:52:10;14.73;;;9.38;;
74168;SDS011;62523;53.336;83.690;2023-09-19T18:57:11;13.00;;;9.02;;
74168;SDS011;62523;53.336;83.690;2023-09-19T19:02:15;10.95;;;6.90;;
74168;SDS011;62523;53.336;83.690;2023-09-19T19:07:17;12.32;;;6.93;;
74168;SDS011;62523;53.336;83.690;2023-09-19T19:12:22;10.93;;;6.65;;
74168;SDS011;62523;53.336;83.690;2023-09-19T19:17:24;9.80;;;7.75;;
74168;SDS011;62523;53.336;83.690;2023-09-19T19:22:25;17.02;;;7.22;;
74168;SDS011;62523;53.336;83.690;2023-09-19T19:27:28;10.95;;;7.22;;
74168;SDS011;62523;53.336;83.690;2023-09-19T19:32:30;10.50;;;6.85;;
74168;SDS011;62523;53.336;83.690;2023-09-19T19:37:32;10.07;;;6.43;;
74168;SDS011;62523;53.336;83.690;2023-09-19T19:42:33;12.60;;;7.13;;
74168;SDS011;62523;53.336;83.690;2023-09-19T19:47:35;8.77;;;7.17;;
74168;SDS011;62523;53.336;83.690;2023-09-19T19:52:36;22.63;;;7.57;;
74168;SDS011;62523;53.336;83.690;2023-09-19T19:57:38;14.60;;;7.35;;
74168;SDS011;62523;53.336;83.690;2023-09-19T20:02:39;6.28;;;5.63;;
74168;SDS011;62523;53.336;83.690;2023-09-19T20:07:41;10.32;;;5.95;;
74168;SDS011;62523;53.336;83.690;2023-09-19T20:12:43;9.63;;;5.72;;
74168;SDS011;62523;53.336;83.690;2023-09-19T20:17:45;8.10;;;5.35;;
74168;SDS011;62523;53.336;83.690;2023-09-19T20:22:47;10.02;;;5.55;;
74168;SDS011;62523;53.336;83.690;2023-09-19T20:27:49;10.10;;;6.15;;
74168;SDS011;62523;53.336;83.690;2023-09-19T20:32:51;10.45;;;6.55;;
74168;SDS011;62523;53.336;83.690;2023-09-19T20:37:52;10.90;;;6.82;;
74168;SDS011;62523;53.336;83.690;2023-09-19T20:43:01;10.00;;;6.97;;
74168;SDS011;62523;53.336;83.690;2023-09-19T20:48:02;9.57;;;6.50;;
74168;SDS011;62523;53.336;83.690;2023-09-19T20:53:05;14.35;;;6.30;;
74168;SDS011;62523;53.336;83.690;2023-09-19T20:58:06;13.15;;;6.40;;
74168;SDS011;62523;53.336;83.690;2023-09-19T21:03:08;8.27;;;5.70;;
74168;SDS011;62523;53.336;83.690;2023-09-19T21:08:14;7.75;;;5.55;;
74168;SDS011;62523;53.336;83.690;2023-09-19T21:13:15;9.23;;;7.32;;
74168;SDS011;62523;53.336;83.690;2023-09-19T21:18:17;12.27;;;7.32;;
74168;SDS011;62523;53.336;83.690;2023-09-19T21:23:18;12.15;;;7.93;;
74168;SDS011;62523;53.336;83.690;2023-09-19T21:28:20;10.82;;;7.68;;
74168;SDS011;62523;53.336;83.690;2023-09-19T21:33:21;13.38;;;8.90;;
74168;SDS011;62523;53.336;83.690;2023-09-19T21:38:23;15.90;;;9.30;;
74168;SDS011;62523;53.336;83.690;2023-09-19T21:43:25;31.95;;;10.63;;
74168;SDS011;62523;53.336;83.690;2023-09-19T21:48:27;12.32;;;7.65;;
74168;SDS011;62523;53.336;83.690;2023-09-19T21:53:29;15.30;;;9.98;;
74168;SDS011;62523;53.336;83.690;2023-09-19T21:58:32;12.88;;;9.10;;
74168;SDS011;62523;53.336;83.690;2023-09-19T22:03:39;12.55;;;8.80;;
74168;SDS011;62523;53.336;83.690;2023-09-19T22:08:41;13.90;;;10.07;;
74168;SDS011;62523;53.336;83.690;2023-09-19T22:13:43;14.75;;;10.68;;
74168;SDS011;62523;53.336;83.690;2023-09-19T22:18:45;18.65;;;9.65;;
74168;SDS011;62523;53.336;83.690;2023-09-19T22:23:47;15.47;;;10.33;;
74168;SDS011;62523;53.336;83.690;2023-09-19T22:28:55;20.55;;;11.13;;
74168;SDS011;62523;53.336;83.690;2023-09-19T22:33:57;18.27;;;10.77;;
74168;SDS011;62523;53.336;83.690;2023-09-19T22:38:59;30.42;;;10.23;;
74168;SDS011;62523;53.336;83.690;2023-09-19T22:44:13;19.17;;;8.03;;
74168;SDS011;62523;53.336;83.690;2023-09-19T22:49:14;16.30;;;8.48;;
74168;SDS011;62523;53.336;83.690;2023-09-19T22:54:19;13.88;;;7.32;;
74168;SDS011;62523;53.336;83.690;2023-09-19T22:59:28;15.27;;;7.13;;
74168;SDS011;62523;53.336;83.690;2023-09-19T23:04:30;17.50;;;8.27;;
74168;SDS011;62523;53.336;83.690;2023-09-19T23:09:35;16.27;;;8.98;;
74168;SDS011;62523;53.336;83.690;2023-09-19T23:14:37;12.35;;;7.22;;
74168;SDS011;62523;53.336;83.690;2023-09-19T23:19:39;9.30;;;6.93;;
74168;SDS011;62523;53.336;83.690;2023-09-19T23:24:42;14.00;;;8.43;;
74168;SDS011;62523;53.336;83.690;2023-09-19T23:29:44;18.77;;;7.22;;
74168;SDS011;62523;53.336;83.690;2023-09-19T23:34:45;11.82;;;7.43;;
74168;SDS011;62523;53.336;83.690;2023-09-19T23:39:47;8.80;;;7.50;;
74168;SDS011;62523;53.336;83.690;2023-09-19T23:44:51;11.98;;;7.85;;
74168;SDS011;62523;53.336;83.690;2023-09-19T23:49:55;14.13;;;8.13;;
74168;SDS011;62523;53.336;83.690;2023-09-19T23:54:58;15.75;;;8.73;;
